createdAt,value
2018-12-15T00:01:33.697Z,-1.00
2018-12-15T00:06:36.979Z,-1.00
2018-12-15T00:11:40.420Z,-1.00
2018-12-15T00:16:43.922Z,-0.90
2018-12-15T00:21:47.241Z,-1.00
2018-12-15T00:26:50.554Z,-0.90
2018-12-15T00:31:53.871Z,-0.90
2018-12-15T00:36:57.235Z,-0.90
2018-12-15T00:42:00.502Z,-0.90
2018-12-15T00:47:03.800Z,-0.90
2018-12-15T00:52:07.183Z,-0.90
2018-12-15T00:57:10.448Z,-0.90
2018-12-15T01:02:13.843Z,-0.90
2018-12-15T01:07:17.139Z,-0.90
2018-12-15T01:12:20.500Z,-0.90
2018-12-15T01:17:23.771Z,-0.90
2018-12-15T01:22:27.188Z,-1.00
2018-12-15T01:27:30.455Z,-0.90
2018-12-15T01:32:33.710Z,-0.90
2018-12-15T01:37:37.019Z,-0.90
2018-12-15T01:42:40.303Z,-0.80
2018-12-15T01:47:43.652Z,-0.80
2018-12-15T01:52:46.994Z,-0.90
2018-12-15T01:57:50.362Z,-0.80
2018-12-15T02:02:53.805Z,-0.90
2018-12-15T02:07:57.155Z,-0.80
2018-12-15T02:13:00.619Z,-0.90
2018-12-15T02:18:03.935Z,-0.90
2018-12-15T02:23:07.335Z,-0.90
2018-12-15T02:28:10.626Z,-0.90
2018-12-15T02:33:14.017Z,-1.00
2018-12-15T02:38:17.424Z,-1.00
2018-12-15T02:43:20.892Z,-1.00
2018-12-15T02:48:24.300Z,-0.90
2018-12-15T02:53:27.792Z,-1.00
2018-12-15T02:58:32.343Z,-1.00
2018-12-15T03:03:35.634Z,-0.90
2018-12-15T03:08:40.095Z,-0.90
2018-12-15T03:13:43.363Z,-1.00
2018-12-15T03:18:46.643Z,-1.00
2018-12-15T03:23:50.055Z,-1.00
2018-12-15T03:28:53.391Z,-0.90
2018-12-15T03:33:56.900Z,-0.90
2018-12-15T03:39:00.404Z,-1.10
2018-12-15T03:44:03.831Z,-1.00
2018-12-15T03:49:07.346Z,-1.00
2018-12-15T03:54:10.672Z,-0.90
2018-12-15T04:04:16.954Z,-1.00
2018-12-15T04:09:20.294Z,-0.90
2018-12-15T04:14:23.700Z,-1.00
2018-12-15T04:19:27.032Z,-0.90
2018-12-15T04:24:30.393Z,-1.00
2018-12-15T04:29:33.828Z,-0.90
2018-12-15T04:34:37.066Z,-0.90
2018-12-15T04:39:40.346Z,-0.90
2018-12-15T04:44:43.759Z,-0.90
2018-12-15T04:49:47.031Z,-0.90
2018-12-15T04:54:50.498Z,-0.90
2018-12-15T04:59:53.899Z,-0.90
2018-12-15T05:04:57.226Z,-0.90
2018-12-15T05:10:00.600Z,-0.90
2018-12-15T05:15:04.083Z,-0.90
2018-12-15T05:20:07.583Z,-1.00
2018-12-15T05:25:10.963Z,-0.80
2018-12-15T05:30:14.360Z,-0.90
2018-12-15T05:35:17.909Z,-0.80
2018-12-15T05:40:21.327Z,-0.80
2018-12-15T05:45:24.621Z,-0.80
2018-12-15T05:50:27.931Z,-0.80
2018-12-15T05:55:31.210Z,-0.80
2018-12-15T06:00:34.494Z,-0.80
2018-12-15T06:05:37.870Z,-0.80
2018-12-15T06:10:41.155Z,-0.80
2018-12-15T06:15:44.422Z,-0.80
2018-12-15T06:20:47.780Z,-0.80
2018-12-15T06:30:54.405Z,-0.80
2018-12-15T06:35:57.674Z,-0.80
2018-12-15T06:41:01.023Z,-0.80
2018-12-15T06:46:04.318Z,-0.80
2018-12-15T06:51:07.605Z,-0.80
2018-12-15T06:56:10.877Z,-0.70
2018-12-15T07:01:14.156Z,-0.70
2018-12-15T07:06:17.442Z,-0.70
2018-12-15T07:11:20.770Z,-0.70
2018-12-15T07:16:24.048Z,-0.70
2018-12-15T07:21:27.327Z,-0.80
2018-12-15T07:26:30.696Z,-0.80
2018-12-15T07:31:34.014Z,-0.70
2018-12-15T07:36:37.358Z,-0.70
2018-12-15T07:41:40.738Z,-0.80
2018-12-15T07:46:44.141Z,-0.70
2018-12-15T07:51:47.522Z,-0.80
2018-12-15T07:56:50.947Z,-0.80
2018-12-15T08:01:54.303Z,-0.70
2018-12-15T08:06:57.724Z,-0.70
2018-12-15T08:12:06.245Z,-0.80
2018-12-15T08:17:09.733Z,-0.70
2018-12-15T08:22:13.071Z,-0.60
2018-12-15T08:27:16.351Z,-0.70
2018-12-15T08:32:19.674Z,-0.70
2018-12-15T08:37:22.958Z,-0.60
2018-12-15T08:42:26.327Z,-0.60
2018-12-15T08:47:29.763Z,-0.60
2018-12-15T08:52:33.067Z,-0.60
2018-12-15T08:57:36.575Z,-0.60
2018-12-15T09:02:39.924Z,-0.60
2018-12-15T09:07:43.534Z,-0.60
2018-12-15T09:12:46.811Z,-0.50
2018-12-15T09:17:50.187Z,-0.50
2018-12-15T09:22:54.403Z,-0.50
2018-12-15T09:27:57.712Z,-0.40
2018-12-15T09:33:01.181Z,-0.40
2018-12-15T09:38:04.615Z,-0.40
2018-12-15T09:43:08.141Z,-0.40
2018-12-15T09:48:11.650Z,-0.40
2018-12-15T09:53:15.017Z,-0.40
2018-12-15T09:58:18.370Z,-0.40
2018-12-15T10:03:21.770Z,-0.40
2018-12-15T10:08:25.192Z,-0.40
2018-12-15T10:13:28.582Z,-0.40
2018-12-15T10:18:32.059Z,-0.30
2018-12-15T10:23:35.435Z,-0.30
2018-12-15T10:28:38.876Z,-0.30
2018-12-15T10:33:42.207Z,-0.30
2018-12-15T10:38:45.724Z,-0.30
2018-12-15T10:43:49.006Z,-0.40
2018-12-15T10:48:53.601Z,-0.30
2018-12-15T10:53:56.892Z,-0.10
2018-12-15T10:59:00.226Z,-0.30
2018-12-15T11:04:03.670Z,-0.40
2018-12-15T11:09:07.934Z,-0.40
2018-12-15T11:14:11.336Z,-0.40
2018-12-15T11:19:14.846Z,-0.20
2018-12-15T11:24:18.190Z,-0.20
2018-12-15T11:29:21.691Z,-0.20
2018-12-15T11:34:25.204Z,-0.30
2018-12-15T11:39:28.730Z,-0.30
2018-12-15T11:44:32.174Z,-0.30
2018-12-15T11:49:35.466Z,-0.30
2018-12-15T11:54:38.968Z,-0.20
2018-12-15T11:59:42.509Z,-0.40
2018-12-15T12:04:46.210Z,-0.30
2018-12-15T12:09:49.705Z,-0.20
2018-12-15T12:14:53.276Z,-0.20
2018-12-15T12:19:56.754Z,-0.20
2018-12-15T12:25:00.405Z,-0.20
2018-12-15T12:30:03.995Z,-0.20
2018-12-15T12:35:07.449Z,-0.10
2018-12-15T12:40:11.113Z,-0.10
2018-12-15T12:45:14.543Z,-0.10
2018-12-15T12:50:17.963Z,-0.30
2018-12-15T12:55:21.324Z,-0.20
2018-12-15T13:00:24.701Z,-0.20
2018-12-15T13:05:28.040Z,-0.20
2018-12-15T13:10:31.399Z,-0.20
2018-12-15T13:15:34.821Z,-0.10
2018-12-15T13:20:38.150Z,-0.20
2018-12-15T13:25:41.590Z,-0.20
2018-12-15T13:30:45.075Z,-0.20
2018-12-15T13:35:48.532Z,-0.30
2018-12-15T13:40:51.950Z,-0.20
2018-12-15T13:45:55.721Z,-0.30
2018-12-15T13:50:59.104Z,-0.30
2018-12-15T13:56:02.663Z,-0.30
2018-12-15T14:01:06.164Z,-0.30
2018-12-15T14:06:09.545Z,-0.30
2018-12-15T14:11:12.927Z,-0.30
2018-12-15T14:16:16.341Z,-0.30
2018-12-15T14:21:19.779Z,-0.30
2018-12-15T14:26:23.169Z,-0.30
2018-12-15T14:31:27.664Z,-0.40
2018-12-15T14:36:31.088Z,-0.50
2018-12-15T14:41:34.593Z,-0.40
2018-12-15T14:46:47.420Z,-0.40
2018-12-15T14:51:51.019Z,-0.30
2018-12-15T14:56:54.614Z,-0.40
2018-12-15T15:01:58.231Z,-0.40
2018-12-15T15:07:01.780Z,-0.40
2018-12-15T15:12:05.110Z,-0.40
2018-12-15T15:17:08.530Z,-0.50
2018-12-15T15:22:12.038Z,-0.50
2018-12-15T15:27:15.548Z,-0.50
2018-12-15T15:32:18.979Z,-0.50
2018-12-15T15:37:22.419Z,-0.50
2018-12-15T15:47:29.001Z,-0.50
2018-12-15T15:52:32.427Z,-0.50
2018-12-15T15:57:35.846Z,-0.50
2018-12-15T16:02:39.352Z,-0.50
2018-12-15T16:07:42.807Z,-0.50
2018-12-15T16:12:46.308Z,-0.50
2018-12-15T16:17:49.696Z,-0.50
2018-12-15T16:22:53.220Z,-0.50
2018-12-15T16:27:56.635Z,-0.50
2018-12-15T16:33:00.179Z,-0.50
2018-12-15T16:38:03.673Z,-0.60
2018-12-15T16:43:07.148Z,-0.60
2018-12-15T16:48:10.754Z,-0.60
2018-12-15T16:53:14.284Z,-0.70
2018-12-15T16:58:17.683Z,-0.70
2018-12-15T17:03:21.297Z,-0.70
2018-12-15T17:08:24.778Z,-0.80
2018-12-15T17:13:28.261Z,-0.70
2018-12-15T17:18:31.817Z,-0.70
2018-12-15T17:23:35.391Z,-0.80
2018-12-15T17:28:38.992Z,-0.90
2018-12-15T17:33:42.550Z,-0.90
2018-12-15T17:38:46.067Z,-0.90
2018-12-15T17:43:50.684Z,-0.80
2018-12-15T17:48:54.171Z,-0.90
2018-12-15T17:53:57.720Z,-0.90
2018-12-15T17:59:01.257Z,-0.80
2018-12-15T18:04:04.704Z,-0.80
2018-12-15T18:09:08.236Z,-0.90
2018-12-15T18:14:11.738Z,-0.90
2018-12-15T18:19:15.357Z,-0.90
2018-12-15T18:24:19.771Z,-0.90
2018-12-15T18:29:23.151Z,-0.90
2018-12-15T18:34:26.539Z,-0.90
2018-12-15T18:39:29.923Z,-0.90
2018-12-15T18:44:33.432Z,-0.90
2018-12-15T18:49:36.836Z,-0.90
2018-12-15T18:54:40.401Z,-0.90
2018-12-15T18:59:43.821Z,-1.00
2018-12-15T19:04:47.202Z,-1.00
2018-12-15T19:09:50.650Z,-1.00
2018-12-15T19:14:54.019Z,-1.00
2018-12-15T19:19:57.467Z,-1.10
2018-12-15T19:25:00.847Z,-1.20
2018-12-15T19:30:04.564Z,-1.40
2018-12-15T19:35:07.977Z,-1.30
2018-12-15T19:40:11.359Z,-1.60
2018-12-15T19:45:14.887Z,-1.60
2018-12-15T19:50:18.288Z,-1.70
2018-12-15T19:55:21.828Z,-1.90
2018-12-15T20:00:25.699Z,-2.10
2018-12-15T20:05:29.099Z,-2.20
2018-12-15T20:10:32.624Z,-2.30
2018-12-15T20:15:36.011Z,-2.30
2018-12-15T20:20:39.607Z,-2.40
2018-12-15T20:25:42.993Z,-2.60
2018-12-15T20:30:46.546Z,-2.60
2018-12-15T20:35:50.001Z,-2.50
2018-12-15T20:40:53.376Z,-2.50
2018-12-15T20:45:56.879Z,-2.70
2018-12-15T20:51:00.267Z,-2.70
2018-12-15T20:56:03.828Z,-2.60
2018-12-15T21:01:07.337Z,-2.60
2018-12-15T21:06:11.839Z,-3.00
2018-12-15T21:11:15.533Z,-3.00
2018-12-15T21:16:18.964Z,-3.10
2018-12-15T21:21:22.330Z,-3.10
2018-12-15T21:26:25.831Z,-3.30
2018-12-15T21:31:29.209Z,-3.20
2018-12-15T21:36:32.575Z,-3.40
2018-12-15T21:41:36.060Z,-3.40
2018-12-15T21:46:39.585Z,-3.40
2018-12-15T21:51:43.148Z,-3.50
2018-12-15T21:56:46.574Z,-3.50
2018-12-15T22:01:49.972Z,-3.60
2018-12-15T22:06:53.410Z,-3.90
2018-12-15T22:11:56.792Z,-4.10
2018-12-15T22:17:00.178Z,-4.00
2018-12-15T22:22:03.517Z,-4.10
2018-12-15T22:27:06.917Z,-4.10
2018-12-15T22:32:10.187Z,-4.00
2018-12-15T22:37:13.494Z,-4.10
2018-12-15T22:42:16.874Z,-4.30
2018-12-15T22:47:20.144Z,-4.20
2018-12-15T22:52:23.626Z,-4.20
2018-12-15T22:57:26.909Z,-4.30
2018-12-15T23:02:30.302Z,-4.40
2018-12-15T23:07:33.759Z,-4.40
2018-12-15T23:12:37.036Z,-4.40
2018-12-15T23:17:40.308Z,-4.70
2018-12-15T23:22:43.634Z,-4.80
2018-12-15T23:27:48.122Z,-4.80
2018-12-15T23:32:51.520Z,-4.80
2018-12-15T23:37:55.408Z,-4.80
2018-12-15T23:42:58.739Z,-4.80
2018-12-15T23:48:02.137Z,-4.90
2018-12-15T23:53:05.532Z,-5.10
2018-12-15T23:58:09.001Z,-5.00
